Time;durP1;ratioP1;P1;durP2;ratioP2;P2;SDS_P1;SDS_P2;PMS_P1;PMS_P2;Temp;Humidity;BMP_temperature;BMP_pressure;BME280_temperature;BME280_humidity;BME280_pressure;Samples;Min_cycle;Max_cycle;Signal;HPM_P1;HPM_P2
2023/10/13 00:02:02;;;;;;;13.18;8.68;;;;;;;;;;4976675;28;20049;-65
2023/10/13 00:04:31;;;;;;;14.48;8.45;;;;;;;;;;4975074;28;20372;-65
2023/10/13 00:06:57;;;;;;;12.98;9.35;;;;;;;;;;4974398;28;20218;-65
2023/10/13 00:09:32;;;;;;;13.25;8.18;;;;;;;;;;4975770;28;20105;-65
2023/10/13 00:11:59;;;;;;;15.27;9.02;;;;;;;;;;4975864;28;20110;-65
2023/10/13 00:14:33;;;;;;;13.88;8.88;;;;;;;;;;4974410;28;20046;-65
2023/10/13 00:17:06;;;;;;;14.95;9.25;;;;;;;;;;4974594;28;20226;-67
2023/10/13 00:19:37;;;;;;;12.57;8.45;;;;;;;;;;4975573;28;20259;-64
2023/10/13 00:22:10;;;;;;;13.82;8.25;;;;;;;;;;4974191;28;20088;-65
2023/10/13 00:24:42;;;;;;;12.73;8.80;;;;;;;;;;4976482;28;20280;-64
2023/10/13 00:27:36;;;;;;;14.88;9.15;;;;;;;;;;4957761;28;20037;-64
2023/10/13 00:32:51;;;;;;;13.27;9.27;;;;;;;;;;4974746;28;20636;-65
2023/10/13 00:37:56;;;;;;;15.02;10.80;;;;;;;;;;4974639;28;20230;-65
2023/10/13 00:43:03;;;;;;;15.90;11.10;;;;;;;;;;4973918;28;20314;-65
2023/10/13 00:45:32;;;;;;;16.02;11.05;;;;;;;;;;5007691;28;20310;-66
2023/10/13 00:48:01;;;;;;;13.75;10.05;;;;;;;;;;4973989;28;20043;-65
2023/10/13 00:50:29;;;;;;;16.05;10.65;;;;;;;;;;4973468;28;20252;-66
2023/10/13 00:52:56;;;;;;;13.88;11.20;;;;;;;;;;4974332;28;20231;-65
2023/10/13 00:55:23;;;;;;;12.52;9.05;;;;;;;;;;4978489;28;20374;-65
2023/10/13 00:57:57;;;;;;;17.10;10.88;;;;;;;;;;4973822;28;20054;-65
2023/10/13 01:00:28;;;;;;;14.45;8.70;;;;;;;;;;4965870;28;20800;-64
2023/10/13 01:03:05;;;;;;;16.45;9.77;;;;;;;;;;4972017;28;20124;-65
2023/10/13 01:05:32;;;;;;;15.02;8.60;;;;;;;;;;4974160;28;20226;-65
2023/10/13 01:08:01;;;;;;;16.00;9.40;;;;;;;;;;4972440;28;20054;-65
2023/10/13 01:10:32;;;;;;;10.40;7.95;;;;;;;;;;4972735;28;20042;-65
2023/10/13 01:13:02;;;;;;;15.50;9.10;;;;;;;;;;4974581;28;20123;-64
2023/10/13 01:15:33;;;;;;;11.30;8.18;;;;;;;;;;4973075;28;20569;-65
2023/10/13 01:18:16;;;;;;;12.40;8.88;;;;;;;;;;4965726;28;20073;-65
2023/10/13 01:20:45;;;;;;;9.15;6.95;;;;;;;;;;4976382;28;20058;-64
2023/10/13 01:23:24;;;;;;;9.88;8.13;;;;;;;;;;4973156;28;20051;-65
2023/10/13 01:25:51;;;;;;;8.55;6.43;;;;;;;;;;5002010;27;20126;-64
2023/10/13 01:28:17;;;;;;;9.18;6.70;;;;;;;;;;4972951;28;20269;-65
2023/10/13 01:30:49;;;;;;;9.70;6.53;;;;;;;;;;4975076;28;20200;-66
2023/10/13 01:33:16;;;;;;;12.95;5.93;;;;;;;;;;4973118;28;20267;-66
2023/10/13 01:35:47;;;;;;;6.72;5.15;;;;;;;;;;4973903;28;20198;-64
2023/10/13 01:38:16;;;;;;;9.10;5.25;;;;;;;;;;4971076;28;20045;-65
2023/10/13 01:40:43;;;;;;;9.15;5.47;;;;;;;;;;4972071;28;20310;-64
2023/10/13 01:43:11;;;;;;;7.03;5.30;;;;;;;;;;4973793;28;20432;-65
2023/10/13 01:45:46;;;;;;;6.20;4.65;;;;;;;;;;4973520;28;20234;-65
2023/10/13 01:48:16;;;;;;;8.43;5.28;;;;;;;;;;4972259;28;20065;-65
2023/10/13 01:50:42;;;;;;;9.95;5.30;;;;;;;;;;4973308;28;20165;-64
2023/10/13 01:53:11;;;;;;;7.47;4.20;;;;;;;;;;4973889;28;20082;-65
2023/10/13 01:55:43;;;;;;;8.48;5.15;;;;;;;;;;4975419;28;20463;-66
2023/10/13 01:58:16;;;;;;;7.50;4.80;;;;;;;;;;4974444;28;20501;-64
2023/10/13 02:00:43;;;;;;;;;;;;;;;;;;5005443;28;20290;-65
2023/10/13 02:03:16;;;;;;;6.53;3.55;;;;;;;;;;4973568;28;20484;-65
2023/10/13 02:05:57;;;;;;;5.95;3.22;;;;;;;;;;4973533;28;21040;-65
2023/10/13 02:08:24;;;;;;;6.63;3.90;;;;;;;;;;4973621;28;20333;-65
2023/10/13 02:10:51;;;;;;;7.05;3.60;;;;;;;;;;4965490;28;20104;-65
2023/10/13 02:13:18;;;;;;;5.32;3.33;;;;;;;;;;4973687;28;20030;-65
2023/10/13 02:15:45;;;;;;;8.95;3.75;;;;;;;;;;4973231;28;20311;-65
2023/10/13 02:18:13;;;;;;;9.55;4.55;;;;;;;;;;4973477;28;20383;-65
2023/10/13 02:20:44;;;;;;;7.65;3.47;;;;;;;;;;4973311;28;20643;-65
2023/10/13 02:23:10;;;;;;;4.53;2.85;;;;;;;;;;4973795;28;20292;-65
2023/10/13 02:25:42;;;;;;;8.27;3.72;;;;;;;;;;4973218;28;20405;-65
2023/10/13 02:28:21;;;;;;;5.75;3.70;;;;;;;;;;4972873;28;20030;-64
2023/10/13 02:30:50;;;;;;;5.28;2.83;;;;;;;;;;4976795;28;20038;-65
2023/10/13 02:33:21;;;;;;;6.47;3.90;;;;;;;;;;4974200;28;20042;-65
2023/10/13 02:35:54;;;;;;;6.50;4.05;;;;;;;;;;4970202;28;20109;-64
2023/10/13 02:38:27;;;;;;;;;;;;;;;;;;4977206;28;20160;-65
2023/10/13 02:40:54;;;;;;;6.63;3.63;;;;;;;;;;4975250;28;19921;-66
2023/10/13 02:43:22;;;;;;;4.38;2.90;;;;;;;;;;4975435;28;20222;-65
2023/10/13 02:45:59;;;;;;;6.45;3.70;;;;;;;;;;4975353;28;20077;-65
2023/10/13 02:48:30;;;;;;;5.43;3.15;;;;;;;;;;4975864;28;20045;-65
2023/10/13 02:51:05;;;;;;;7.82;4.13;;;;;;;;;;4975501;28;20069;-65
2023/10/13 02:53:31;;;;;;;8.48;4.28;;;;;;;;;;4975822;28;20236;-65
2023/10/13 02:56:06;;;;;;;7.07;4.30;;;;;;;;;;4977241;28;20049;-66
2023/10/13 02:58:39;;;;;;;6.05;4.20;;;;;;;;;;4976032;28;20501;-66
2023/10/13 03:01:16;;;;;;;7.95;4.63;;;;;;;;;;4974963;28;20102;-66
2023/10/13 03:03:43;;;;;;;9.55;5.22;;;;;;;;;;4976572;28;20195;-65
2023/10/13 03:06:11;;;;;;;5.53;4.65;;;;;;;;;;4969333;28;20050;-65
2023/10/13 03:08:39;;;;;;;7.00;4.93;;;;;;;;;;4975806;28;20192;-65
2023/10/13 03:11:05;;;;;;;7.03;5.10;;;;;;;;;;4973786;28;20191;-64
2023/10/13 03:13:35;;;;;;;10.73;5.82;;;;;;;;;;4974837;28;20468;-65
2023/10/13 03:16:03;;;;;;;8.13;5.72;;;;;;;;;;4974892;28;20196;-65
2023/10/13 03:18:33;;;;;;;7.97;5.63;;;;;;;;;;4975946;28;20319;-65
2023/10/13 03:21:02;;;;;;;9.13;5.70;;;;;;;;;;4974806;28;20057;-65
2023/10/13 03:23:28;;;;;;;8.77;5.68;;;;;;;;;;4975838;28;20064;-66
2023/10/13 03:25:55;;;;;;;8.15;6.00;;;;;;;;;;4976252;28;20050;-66
2023/10/13 03:28:25;;;;;;;9.38;6.68;;;;;;;;;;4975380;28;20125;-65
2023/10/13 03:31:01;;;;;;;12.18;7.05;;;;;;;;;;4975878;28;20480;-65
2023/10/13 03:33:27;;;;;;;9.52;5.95;;;;;;;;;;4975155;28;20052;-65
2023/10/13 03:36:05;;;;;;;12.38;6.53;;;;;;;;;;4976312;28;20128;-65
2023/10/13 03:38:36;;;;;;;9.80;6.00;;;;;;;;;;4974143;28;20120;-65
2023/10/13 03:41:20;;;;;;;8.52;6.43;;;;;;;;;;4967925;28;20310;-65
2023/10/13 03:43:51;;;;;;;9.07;6.13;;;;;;;;;;4974771;28;20312;-64
2023/10/13 03:46:21;;;;;;;9.93;6.63;;;;;;;;;;4974027;28;20384;-66
2023/10/13 03:48:54;;;;;;;8.10;6.07;;;;;;;;;;4974916;28;20066;-65
2023/10/13 03:51:21;;;;;;;8.70;6.38;;;;;;;;;;4974307;28;20283;-65
2023/10/13 03:53:52;;;;;;;8.38;6.03;;;;;;;;;;4974491;28;20048;-65
2023/10/13 03:56:31;;;;;;;8.48;5.10;;;;;;;;;;4975453;28;20062;-65
2023/10/13 03:59:00;;;;;;;11.70;6.35;;;;;;;;;;4974669;28;20614;-65
2023/10/13 04:01:34;;;;;;;7.03;5.47;;;;;;;;;;4975145;28;20045;-65
2023/10/13 04:04:09;;;;;;;8.43;6.43;;;;;;;;;;4973725;28;20548;-65
2023/10/13 04:06:50;;;;;;;7.53;5.57;;;;;;;;;;4974085;28;20543;-65
2023/10/13 04:17:25;;;;;;;9.57;5.80;;;;;;;;;;4974234;28;20129;-65
2023/10/13 04:36:21;;;;;;;6.38;3.75;;;;;;;;;;4973714;28;20042;-64
2023/10/13 04:39:09;;;;;;;6.78;3.60;;;;;;;;;;4973738;28;20038;-65
2023/10/13 04:41:39;;;;;;;7.30;5.03;;;;;;;;;;4971593;28;20159;-64
2023/10/13 04:49:49;;;;;;;5.28;3.90;;;;;;;;;;4972869;28;20054;-65
2023/10/13 05:04:21;;;;;;;7.60;4.88;;;16.50;99.90;;;;;;4959489;28;20062;-65
2023/10/13 05:46:20;;;;;;;6.35;4.75;;;16.60;99.90;;;;;;4975165;28;20077;-65
2023/10/13 05:48:52;;;;;;;9.95;4.45;;;16.60;99.90;;;;;;4963420;28;20054;-65
2023/10/13 06:29:55;;;;;;;4.53;3.25;;;16.60;99.90;;;;;;4965879;28;20042;-65
2023/10/13 06:32:25;;;;;;;5.22;3.13;;;16.60;99.90;;;;;;4963944;28;20315;-65
2023/10/13 06:34:57;;;;;;;4.78;3.05;;;16.60;99.90;;;;;;4968890;28;20095;-65
2023/10/13 06:37:30;;;;;;;4.32;3.10;;;16.60;99.90;;;;;;4967867;28;20082;-65
2023/10/13 06:40:14;;;;;;;3.80;2.65;;;16.60;99.90;;;;;;4972101;28;20216;-65
2023/10/13 06:42:42;;;;;;;5.40;3.60;;;16.60;99.90;;;;;;4972960;28;20038;-64
2023/10/13 06:45:09;;;;;;;4.65;2.60;;;16.60;99.90;;;;;;4970840;28;20555;-65
2023/10/13 06:47:42;;;;;;;4.10;2.92;;;16.60;99.90;;;;;;4970701;28;20539;-65
2023/10/13 06:50:24;;;;;;;4.97;2.28;;;16.60;99.90;;;;;;4971591;28;20043;-66
2023/10/13 06:52:50;;;;;;;6.90;2.75;;;16.60;99.90;;;;;;4972699;28;21685;-65
2023/10/13 06:55:17;;;;;;;4.47;2.80;;;16.60;99.90;;;;;;4972228;28;20505;-65
2023/10/13 06:57:44;;;;;;;7.85;3.70;;;16.60;99.90;;;;;;4972865;28;20038;-65
2023/10/13 07:00:19;;;;;;;6.30;3.13;;;16.60;99.90;;;;;;4971700;28;20109;-65
2023/10/13 07:02:51;;;;;;;4.80;2.50;;;16.60;99.90;;;;;;4971225;28;20224;-65
2023/10/13 07:05:17;;;;;;;5.55;2.78;;;16.60;99.90;;;;;;4972126;28;20267;-64
2023/10/13 07:07:44;;;;;;;5.43;3.70;;;16.60;99.90;;;;;;4970858;28;20211;-65
2023/10/13 07:10:11;;;;;;;6.32;3.20;;;16.60;99.90;;;;;;4970674;28;20045;-66
2023/10/13 07:12:42;;;;;;;8.02;3.80;;;16.60;99.90;;;;;;4972919;28;20188;-65
2023/10/13 07:17:44;;;;;;;6.15;3.50;;;16.70;99.90;;;;;;4974370;28;20208;-65
2023/10/13 07:22:57;;;;;;;6.22;3.70;;;16.70;99.90;;;;;;4975195;28;20204;-65
2023/10/13 07:25:25;;;;;;;7.22;3.83;;;16.70;99.90;;;;;;4971105;28;20642;-66
2023/10/13 07:27:51;;;;;;;6.00;3.63;;;16.70;99.90;;;;;;4974750;28;20105;-66
2023/10/13 07:30:26;;;;;;;7.45;3.80;;;16.70;99.90;;;;;;4974904;28;20045;-64
2023/10/13 07:32:52;;;;;;;7.50;3.42;;;16.70;99.90;;;;;;4972682;28;20633;-65
2023/10/13 07:35:24;;;;;;;10.82;3.92;;;16.70;99.90;;;;;;4974217;28;20594;-65
2023/10/13 07:37:54;;;;;;;8.80;4.05;;;16.70;99.90;;;;;;4974756;28;21003;-65
2023/10/13 07:43:00;;;;;;;;;;;16.70;99.90;;;;;;4974984;28;20085;-65
2023/10/13 07:45:35;;;;;;;14.27;5.00;;;16.70;99.90;;;;;;4973752;28;19956;-65
2023/10/13 07:48:07;;;;;;;9.40;3.97;;;16.70;99.90;;;;;;4988297;28;20380;-65
2023/10/13 07:50:35;;;;;;;9.25;4.10;;;16.70;99.90;;;;;;4972615;28;20445;-66
2023/10/13 07:53:20;;;;;;;10.43;4.97;;;16.70;99.90;;;;;;4973797;28;20489;-65
2023/10/13 07:55:55;;;;;;;11.32;5.20;;;16.70;99.90;;;;;;4975122;28;20068;-65
2023/10/13 07:58:24;;;;;;;16.42;4.88;;;16.70;99.90;;;;;;4972113;28;20201;-66
2023/10/13 08:01:17;;;;;;;11.32;4.72;;;16.70;99.90;;;;;;4974732;28;20415;-65
2023/10/13 08:04:28;;;;;;;9.90;4.28;;;16.70;99.90;;;;;;4970950;28;20471;-66
2023/10/13 08:06:28;;;;;;;8.02;4.63;;;16.70;99.90;;;;;;4981295;28;20631;-66
2023/10/13 08:08:55;;;;;;;9.60;4.68;;;16.70;99.90;;;;;;4973778;28;20240;-65
2023/10/13 08:13:59;;;;;;;8.40;4.95;;;16.70;99.90;;;;;;4976444;28;20598;-65
2023/10/13 08:19:17;;;;;;;14.45;5.28;;;16.70;99.90;;;;;;4972656;28;20042;-65
2023/10/13 08:21:58;;;;;;;11.90;4.65;;;16.70;99.90;;;;;;4974194;28;20339;-65
2023/10/13 08:39:58;;;;;;;11.23;4.90;;;16.70;99.90;;;;;;4972603;28;20311;-65
2023/10/13 08:48:12;;;;;;;8.38;4.43;;;16.80;99.90;;;;;;4973068;28;20177;-65
2023/10/13 08:56:06;;;;;;;10.75;5.53;;;16.80;99.90;;;;;;4971355;28;20619;-65
2023/10/13 09:09:26;;;;;;;7.47;5.07;;;17.00;99.90;;;;;;4974920;28;20296;-66
2023/10/13 09:12:10;;;;;;;12.38;5.55;;;16.90;99.90;;;;;;4973315;28;20053;-66
2023/10/13 09:14:38;;;;;;;7.88;4.70;;;17.00;99.90;;;;;;4955301;28;20050;-66
2023/10/13 09:19:56;;;;;;;7.93;5.05;;;17.10;99.90;;;;;;4976734;28;20049;-65
2023/10/13 09:22:27;;;;;;;11.48;4.75;;;17.10;99.90;;;;;;4973442;28;20046;-66
2023/10/13 09:24:59;;;;;;;11.02;5.40;;;17.10;99.90;;;;;;4973320;28;20112;-66
2023/10/13 09:27:29;;;;;;;8.75;5.68;;;17.20;99.90;;;;;;4967874;28;20044;-66
2023/10/13 09:32:45;;;;;;;11.63;5.75;;;17.20;99.90;;;;;;4967890;28;20134;-66
2023/10/13 09:35:18;;;;;;;7.28;4.63;;;17.30;99.90;;;;;;4971595;28;20110;-66
2023/10/13 09:37:47;;;;;;;10.02;5.00;;;17.30;99.90;;;;;;4969210;28;20486;-66
2023/10/13 09:40:25;;;;;;;7.38;4.53;;;17.40;99.90;;;;;;5001422;27;20084;-66
2023/10/13 09:42:56;;;;;;;9.55;5.70;;;17.40;99.90;;;;;;4969266;28;20524;-66
2023/10/13 09:48:26;;;;;;;12.75;5.53;;;17.50;99.90;;;;;;4968849;28;20050;-65
2023/10/13 09:50:56;;;;;;;11.07;5.40;;;17.50;99.90;;;;;;4971627;28;20207;-66
2023/10/13 09:53:23;;;;;;;11.40;6.22;;;17.50;99.90;;;;;;4971007;28;20164;-66
2023/10/13 09:56:19;;;;;;;12.07;5.38;;;17.60;99.90;;;;;;4974485;28;20988;-66
2023/10/13 09:58:56;;;;;;;7.97;4.97;;;17.60;99.90;;;;;;4973312;28;20038;-65
2023/10/13 10:01:33;;;;;;;8.95;5.30;;;17.60;99.90;;;;;;4972170;28;20033;-66
2023/10/13 10:04:18;;;;;;;14.50;5.43;;;17.70;99.90;;;;;;4970456;28;20573;-66
2023/10/13 10:06:57;;;;;;;11.98;5.03;;;17.70;99.90;;;;;;4972287;28;20118;-66
2023/10/13 10:09:37;;;;;;;8.57;5.68;;;17.70;99.90;;;;;;4972742;28;20092;-66
2023/10/13 10:12:18;;;;;;;10.55;5.75;;;17.70;99.90;;;;;;4972699;28;20072;-65
2023/10/13 10:15:20;;;;;;;8.68;4.97;;;17.80;99.90;;;;;;4972880;28;20186;-66
2023/10/13 10:17:47;;;;;;;8.85;5.03;;;17.80;99.90;;;;;;4974005;28;20216;-66
2023/10/13 10:20:39;;;;;;;7.97;5.00;;;17.80;99.90;;;;;;4971312;28;20210;-66
2023/10/13 10:23:01;;;;;;;9.13;5.00;;;17.80;99.90;;;;;;4972643;28;20252;-66
2023/10/13 10:25:35;;;;;;;10.85;5.40;;;17.80;99.90;;;;;;4971564;28;20289;-66
2023/10/13 10:28:06;;;;;;;11.48;5.68;;;17.90;99.90;;;;;;4973694;28;20046;-66
2023/10/13 10:30:38;;;;;;;11.82;5.28;;;17.90;99.90;;;;;;4969730;28;20133;-66
2023/10/13 10:33:23;;;;;;;11.77;4.63;;;18.00;99.90;;;;;;4972530;28;20038;-66
2023/10/13 10:36:00;;;;;;;11.18;5.00;;;18.00;99.90;;;;;;4972287;28;20080;-66
2023/10/13 10:40:58;;;;;;;12.68;6.03;;;18.10;99.90;;;;;;4972084;28;20133;-66
2023/10/13 10:43:27;;;;;;;9.60;5.38;;;18.10;99.90;;;;;;4968510;28;20600;-66
2023/10/13 10:45:59;;;;;;;9.82;5.30;;;18.10;99.90;;;;;;4973544;28;20128;-66
2023/10/13 10:48:34;;;;;;;11.80;5.63;;;18.20;99.90;;;;;;5002536;28;20046;-66
2023/10/13 10:51:07;;;;;;;9.90;4.75;;;18.20;99.90;;;;;;4976390;28;20046;-66
2023/10/13 10:53:43;;;;;;;10.68;5.07;;;18.20;99.90;;;;;;4976691;28;20045;-66
2023/10/13 10:56:19;;;;;;;10.52;4.63;;;18.30;99.90;;;;;;4976712;28;20527;-66
2023/10/13 10:58:54;;;;;;;9.13;5.28;;;18.30;99.90;;;;;;4975119;28;20046;-66
2023/10/13 11:01:25;;;;;;;12.50;5.85;;;18.40;99.90;;;;;;4976846;28;20098;-66
2023/10/13 11:03:58;;;;;;;10.15;5.28;;;18.40;99.90;;;;;;4975927;28;20050;-66
2023/10/13 11:06:28;;;;;;;10.68;6.07;;;18.40;99.90;;;;;;4976082;28;20083;-66
2023/10/13 11:09:18;;;;;;;14.05;5.78;;;18.40;99.90;;;;;;4989452;28;20521;-66
2023/10/13 11:11:46;;;;;;;11.65;5.57;;;18.50;99.90;;;;;;4976273;28;20195;-66
2023/10/13 11:14:31;;;;;;;16.13;6.35;;;18.50;99.90;;;;;;4975762;28;20552;-65
2023/10/13 11:17:04;;;;;;;15.77;6.32;;;18.50;99.90;;;;;;4976176;28;20546;-66
2023/10/13 11:19:40;;;;;;;9.65;5.35;;;18.50;99.90;;;;;;4975344;28;20046;-66
2023/10/13 11:22:29;;;;;;;11.32;5.55;;;18.50;99.90;;;;;;4974601;28;20054;-67
2023/10/13 11:25:11;;;;;;;7.47;5.32;;;18.50;99.90;;;;;;4976574;28;20046;-66
2023/10/13 11:30:25;;;;;;;10.82;6.50;;;18.50;99.90;;;;;;4974492;28;20081;-65
2023/10/13 11:33:00;;;;;;;9.32;5.28;;;18.50;99.90;;;;;;4975358;28;20540;-66
2023/10/13 11:35:48;;;;;;;11.52;5.00;;;18.50;99.90;;;;;;4975134;28;20042;-66
2023/10/13 11:38:26;;;;;;;10.05;5.20;;;18.50;99.90;;;;;;4975725;28;20228;-66
2023/10/13 11:46:16;;;;;;;10.80;5.60;;;18.60;99.90;;;;;;4975511;28;20229;-66
2023/10/13 11:48:54;;;;;;;11.25;5.88;;;18.60;99.90;;;;;;4974596;28;20050;-66
2023/10/13 11:51:26;;;;;;;9.35;5.15;;;18.50;99.90;;;;;;4974870;28;20208;-64
2023/10/13 11:53:52;;;;;;;17.42;6.10;;;18.50;99.90;;;;;;4978294;28;20057;-66
2023/10/13 11:56:21;;;;;;;10.63;5.35;;;18.50;99.90;;;;;;4977888;28;20035;-65
2023/10/13 11:58:48;;;;;;;10.93;4.72;;;18.50;99.90;;;;;;4974343;28;20045;-66
2023/10/13 12:11:42;;;;;;;11.48;5.47;;;18.50;99.90;;;;;;4973542;28;20041;-66
2023/10/13 12:14:16;;;;;;;8.80;6.22;;;18.50;99.90;;;;;;4987731;28;20054;-65
2023/10/13 12:16:48;;;;;;;11.07;5.88;;;18.50;99.90;;;;;;4975720;28;20599;-65
2023/10/13 12:19:16;;;;;;;11.93;6.87;;;18.50;99.90;;;;;;4971373;28;20102;-65
2023/10/13 12:21:43;;;;;;;10.27;6.32;;;18.40;99.90;;;;;;4973978;28;20635;-65
2023/10/13 12:24:21;;;;;;;13.35;6.50;;;18.40;99.90;;;;;;4974348;28;20076;-64
2023/10/13 12:26:47;;;;;;;10.15;5.80;;;18.40;99.90;;;;;;4974742;28;20038;-65
2023/10/13 12:29:22;;;;;;;13.27;6.43;;;18.40;99.90;;;;;;4973535;28;20153;-65
2023/10/13 12:32:05;;;;;;;13.48;7.28;;;18.40;99.90;;;;;;4975026;28;20253;-65
2023/10/13 12:34:57;;;;;;;13.60;6.97;;;18.30;99.90;;;;;;4974399;28;20046;-64
2023/10/13 12:51:20;;;;;;;12.98;5.90;;;18.30;99.90;;;;;;4975810;28;20514;-65
2023/10/13 12:53:52;;;;;;;17.00;7.97;;;18.30;99.90;;;;;;4974068;28;20034;-65
2023/10/13 12:56:41;;;;;;;12.48;6.57;;;18.30;99.90;;;;;;4974059;28;20268;-65
2023/10/13 12:59:09;;;;;;;14.45;6.65;;;18.30;99.90;;;;;;4974650;28;20571;-65
2023/10/13 13:01:35;;;;;;;12.43;6.63;;;18.20;99.90;;;;;;4974374;28;20248;-65
2023/10/13 13:04:03;;;;;;;10.52;6.82;;;18.20;99.90;;;;;;4973979;28;20345;-65
2023/10/13 13:06:30;;;;;;;11.75;6.43;;;18.20;99.90;;;;;;4973927;28;20285;-64
2023/10/13 13:09:00;;;;;;;16.45;7.22;;;18.20;99.90;;;;;;4972964;28;20556;-65
2023/10/13 13:11:29;;;;;;;14.15;7.28;;;18.20;99.90;;;;;;5004225;28;20084;-65
2023/10/13 13:13:55;;;;;;;12.35;7.32;;;18.20;99.90;;;;;;4973858;28;20042;-65
2023/10/13 13:16:24;;;;;;;11.45;7.47;;;18.20;99.90;;;;;;4973856;28;20536;-65
2023/10/13 13:18:54;;;;;;;10.65;7.25;;;18.20;99.90;;;;;;4972669;28;20221;-65
2023/10/13 13:21:22;;;;;;;11.95;6.85;;;18.20;99.90;;;;;;4973740;28;20308;-64
2023/10/13 13:23:54;;;;;;;11.35;7.07;;;18.20;99.90;;;;;;4973467;28;20046;-64
2023/10/13 13:26:21;;;;;;;12.93;6.67;;;18.10;99.90;;;;;;4973174;28;20758;-65
2023/10/13 13:28:51;;;;;;;12.63;7.18;;;18.20;99.90;;;;;;4972894;28;20077;-65
2023/10/13 13:31:18;;;;;;;17.05;7.90;;;18.20;99.90;;;;;;4971829;28;20132;-65
2023/10/13 13:33:44;;;;;;;16.60;7.35;;;18.10;99.90;;;;;;4972041;28;20151;-64
2023/10/13 13:36:15;;;;;;;14.30;7.10;;;18.10;99.90;;;;;;4972613;28;20283;-64
2023/10/13 13:38:42;;;;;;;16.95;7.45;;;18.10;99.90;;;;;;4973562;28;20125;-64
2023/10/13 13:41:16;;;;;;;12.52;7.80;;;18.10;99.90;;;;;;4972932;28;20042;-65
2023/10/13 13:46:27;;;;;;;15.35;7.28;;;18.10;99.90;;;;;;4972041;28;20127;-65
2023/10/13 13:49:00;;;;;;;15.05;7.07;;;18.10;99.90;;;;;;4972799;28;20179;-65
2023/10/13 13:51:30;;;;;;;15.13;7.45;;;18.10;99.90;;;;;;4971259;28;20042;-65
2023/10/13 13:53:56;;;;;;;16.67;7.75;;;18.10;99.90;;;;;;4972996;28;20643;-65
2023/10/13 13:56:28;;;;;;;12.05;6.60;;;18.10;99.90;;;;;;4973519;28;20057;-65
2023/10/13 13:58:58;;;;;;;17.65;7.68;;;18.10;99.90;;;;;;4972415;28;20572;-65
2023/10/13 14:01:29;;;;;;;18.08;8.75;;;18.10;99.90;;;;;;4972900;28;20198;-65
2023/10/13 14:04:02;;;;;;;13.38;6.68;;;18.10;99.90;;;;;;4973242;28;20050;-66
2023/10/13 14:06:29;;;;;;;15.10;7.47;;;18.10;99.90;;;;;;4973048;28;20094;-65
2023/10/13 14:09:15;;;;;;;10.10;7.18;;;18.10;99.90;;;;;;4972920;28;20127;-65
2023/10/13 14:16:53;;;;;;;11.10;6.88;;;18.10;99.90;;;;;;4974036;28;20060;-65
2023/10/13 14:19:28;;;;;;;10.43;6.80;;;18.10;99.90;;;;;;4972492;28;20046;-65
2023/10/13 14:21:58;;;;;;;14.57;7.88;;;18.10;99.90;;;;;;4973900;28;20041;-66
2023/10/13 14:24:27;;;;;;;19.17;8.13;;;18.20;99.90;;;;;;4975872;28;20181;-66
2023/10/13 14:26:55;;;;;;;16.08;8.40;;;18.10;99.90;;;;;;4978360;28;20049;-65
2023/10/13 14:29:26;;;;;;;16.15;8.60;;;18.10;99.90;;;;;;4976361;28;20038;-66
2023/10/13 14:31:52;;;;;;;16.35;7.60;;;18.10;99.90;;;;;;4976221;28;20046;-65
2023/10/13 14:34:21;;;;;;;17.48;7.82;;;18.10;99.90;;;;;;4976170;28;20533;-66
2023/10/13 14:36:48;;;;;;;11.88;6.60;;;18.10;99.90;;;;;;4977650;28;20084;-65
2023/10/13 14:39:14;;;;;;;15.48;7.07;;;18.10;99.90;;;;;;4977861;28;20046;-65
2023/10/13 14:41:40;;;;;;;14.80;7.97;;;18.20;99.90;;;;;;4976601;28;20458;-66
2023/10/13 14:44:06;;;;;;;16.98;8.02;;;18.10;99.90;;;;;;4976688;28;20405;-66
2023/10/13 14:46:38;;;;;;;26.60;8.13;;;18.10;99.90;;;;;;4977310;28;20129;-66
2023/10/13 14:49:04;;;;;;;15.35;8.10;;;18.10;99.90;;;;;;4976735;28;20060;-66
2023/10/13 14:51:31;;;;;;;14.60;7.30;;;18.10;99.90;;;;;;4977624;28;20505;-65
2023/10/13 14:53:59;;;;;;;19.25;8.60;;;18.10;99.90;;;;;;4977211;28;20441;-66
2023/10/13 14:56:26;;;;;;;15.55;6.82;;;18.10;99.90;;;;;;4977721;28;20053;-65
2023/10/13 14:58:53;;;;;;;21.20;9.10;;;18.10;99.90;;;;;;4975674;28;20048;-66
2023/10/13 15:01:20;;;;;;;13.30;7.13;;;18.20;99.90;;;;;;4977995;28;20154;-65
2023/10/13 15:03:48;;;;;;;14.02;6.78;;;18.20;99.90;;;;;;4975762;28;20597;-65
2023/10/13 15:06:20;;;;;;;18.45;9.60;;;18.20;99.90;;;;;;4975708;28;20049;-65
2023/10/13 15:08:48;;;;;;;23.33;9.23;;;18.20;99.90;;;;;;4975747;28;20066;-65
2023/10/13 15:11:15;;;;;;;16.17;7.82;;;18.20;99.90;;;;;;4974523;28;20060;-65
2023/10/13 15:13:43;;;;;;;16.23;9.30;;;18.20;99.90;;;;;;4976781;28;20194;-65
2023/10/13 15:16:21;;;;;;;19.10;8.63;;;18.20;99.90;;;;;;4975070;28;20068;-65
2023/10/13 15:18:52;;;;;;;21.33;9.73;;;18.20;99.90;;;;;;4976455;28;20090;-65
2023/10/13 15:21:34;;;;;;;16.85;8.10;;;18.20;99.90;;;;;;4976553;28;20315;-65
2023/10/13 15:24:03;;;;;;;13.63;7.45;;;18.20;99.90;;;;;;4976131;28;20100;-65
2023/10/13 15:26:30;;;;;;;22.73;8.15;;;18.20;99.90;;;;;;4976042;28;20830;-66
2023/10/13 15:29:00;;;;;;;17.50;7.38;;;18.20;99.90;;;;;;4957564;28;20074;-66
2023/10/13 15:31:37;;;;;;;13.77;7.75;;;18.20;99.90;;;;;;4974613;28;20681;-65
2023/10/13 15:34:06;;;;;;;14.10;7.82;;;18.20;99.90;;;;;;4970893;28;20054;-66
2023/10/13 15:36:34;;;;;;;19.38;8.27;;;18.20;99.90;;;;;;4973185;28;20088;-65
2023/10/13 15:39:00;;;;;;;14.23;8.27;;;18.20;99.90;;;;;;4975791;28;20299;-65
2023/10/13 15:41:27;;;;;;;17.85;8.32;;;18.20;99.90;;;;;;4974521;28;20042;-65
2023/10/13 15:43:54;;;;;;;16.88;8.82;;;18.20;99.90;;;;;;4975933;28;20064;-66
2023/10/13 15:46:21;;;;;;;20.13;8.35;;;18.20;99.90;;;;;;5006493;28;20501;-65
2023/10/13 15:48:52;;;;;;;21.42;8.23;;;18.20;99.90;;;;;;4975139;28;20208;-65
2023/10/13 15:51:19;;;;;;;20.45;8.35;;;18.30;99.90;;;;;;4957607;28;20144;-66
2023/10/13 15:53:47;;;;;;;17.63;8.25;;;18.20;99.90;;;;;;4976298;28;20386;-65
2023/10/13 15:56:14;;;;;;;20.75;8.93;;;18.20;99.90;;;;;;4974574;28;20070;-65
2023/10/13 15:58:44;;;;;;;26.05;9.63;;;18.20;99.90;;;;;;4975432;28;20038;-66
2023/10/13 16:01:12;;;;;;;26.88;8.90;;;18.20;99.90;;;;;;4976157;28;20061;-65
2023/10/13 16:03:49;;;;;;;20.58;7.35;;;18.20;99.90;;;;;;4974051;28;20252;-65
2023/10/13 16:06:16;;;;;;;22.15;9.02;;;18.20;99.90;;;;;;4972468;28;20445;-65
2023/10/13 16:08:42;;;;;;;14.77;7.60;;;18.20;99.90;;;;;;5003715;28;20301;-66
2023/10/13 16:11:13;;;;;;;8.35;6.35;;;18.20;99.90;;;;;;4973290;28;20152;-66
2023/10/13 16:13:42;;;;;;;18.40;7.78;;;18.20;99.90;;;;;;4976647;28;20046;-66
2023/10/13 16:16:25;;;;;;;13.57;7.40;;;18.30;99.90;;;;;;4974558;28;20103;-66
2023/10/13 16:18:52;;;;;;;20.33;7.97;;;18.20;99.90;;;;;;4974779;28;20085;-66
2023/10/13 16:21:19;;;;;;;16.52;7.05;;;18.20;99.90;;;;;;5004406;28;20398;-66
2023/10/13 16:23:49;;;;;;;17.05;7.68;;;18.20;99.90;;;;;;4973790;28;20488;-66
2023/10/13 16:26:16;;;;;;;15.63;7.15;;;18.30;99.90;;;;;;4973936;28;20200;-66
2023/10/13 16:28:41;;;;;;;14.27;7.68;;;18.20;99.90;;;;;;4971902;28;21214;-66
2023/10/13 16:31:08;;;;;;;13.02;5.93;;;18.20;99.90;;;;;;4974528;28;20291;-65
2023/10/13 16:33:39;;;;;;;11.50;6.95;;;18.20;99.90;;;;;;4972999;28;20619;-66
2023/10/13 16:36:08;;;;;;;11.35;6.57;;;18.20;99.90;;;;;;4970925;28;20206;-66
2023/10/13 16:38:37;;;;;;;11.90;6.20;;;18.20;99.90;;;;;;4970073;28;20080;-66
2023/10/13 16:41:08;;;;;;;12.02;6.03;;;18.20;99.90;;;;;;4971980;28;20232;-66
2023/10/13 16:43:35;;;;;;;13.73;5.95;;;18.20;99.90;;;;;;4970636;28;20085;-66
2023/10/13 16:46:11;;;;;;;13.07;5.60;;;18.20;99.90;;;;;;4972178;28;21007;-66
2023/10/13 16:48:37;;;;;;;13.13;5.57;;;18.20;99.90;;;;;;4970775;28;20164;-66
2023/10/13 16:51:05;;;;;;;18.27;6.07;;;18.20;99.90;;;;;;4972905;28;20620;-66
2023/10/13 16:53:33;;;;;;;14.43;6.55;;;18.20;99.90;;;;;;4972312;28;20377;-66
2023/10/13 16:56:02;;;;;;;15.63;5.43;;;18.10;99.90;;;;;;4971127;28;20037;-65
2023/10/13 16:58:30;;;;;;;16.00;5.85;;;18.10;99.90;;;;;;4969550;28;20042;-66
2023/10/13 17:00:56;;;;;;;12.50;5.32;;;18.10;99.90;;;;;;4972394;28;20091;-66
2023/10/13 17:03:40;;;;;;;15.68;6.30;;;18.10;99.90;;;;;;4970440;28;20529;-66
2023/10/13 17:06:08;;;;;;;11.40;4.95;;;18.10;99.90;;;;;;4972439;28;20207;-65
2023/10/13 17:08:36;;;;;;;17.25;5.10;;;18.10;99.90;;;;;;4972083;28;20320;-66
2023/10/13 17:11:16;;;;;;;10.13;4.72;;;18.10;99.90;;;;;;4974361;28;20710;-65
2023/10/13 17:13:45;;;;;;;13.63;5.35;;;18.20;99.90;;;;;;4974705;28;20064;-66
2023/10/13 17:16:19;;;;;;;12.50;5.20;;;18.10;99.90;;;;;;4972649;28;20095;-66
2023/10/13 17:18:47;;;;;;;11.68;5.22;;;18.10;99.90;;;;;;4969647;28;20038;-64
2023/10/13 17:21:33;;;;;;;14.15;5.60;;;18.10;99.90;;;;;;4970457;28;20534;-66
2023/10/13 17:24:02;;;;;;;11.98;4.93;;;18.10;99.90;;;;;;4972529;28;20047;-65
2023/10/13 17:26:30;;;;;;;14.60;6.28;;;18.10;99.90;;;;;;4973018;28;20156;-66